Accueil
METAR-TAF:

METAR-TAF

Aéroports :

Aéroport international de Bahawalpur

Bahawalpur, Pakistan

latitude: 29-20-53N, longitude: 71-43-04E, altitude: 119 m

METAR: absent

Heure: 07:58 (02:58 UTC)

Prévision

Le bulletin a été fait il y a 5 heures et 13 minutes, à 21:45 UTC
Prévision valable du 08 à 00 UTC au 08 à 18 UTC
Vent 12 kt de nord-est
Visibilité: 5000 m
Quelques nuages à une hauteur de 4000 ft
fumée
Probabilité 30% :
Temporairement
du 08 à 01 UTC au 08 à 04 UTC
Vent 5 kt de nord-est
Visibilité: 2000 m
fumée

TAF: OPBW 072145Z 0800/0818 05012KT 5000 FU FEW040 TX32/0810Z TN18/0801Z PROB30 TEMPO 0801/0804 05005KT 2000 FU NSC

Observations et prévisions météorologiques de plus de 4000 aéroports (messages METAR et TAF).

Les stations disponibles sont représentées par des disques jaunes et rouges sur la carte.

Passer la souris dessus pour voir le nom de la station.

Cliquer dessus pour voir les observations et prévisions météorologiques.

Pour changer de carte: cliquez sur les boutons verts avec une croix noire pour zoomer, sur le bouton vert avec un tiret pour effectuer un zoom arrière, ou sur les flèches vertes pour les cartes adjacentes.


METAR-TAF: